Time;durP1;ratioP1;P1;durP2;ratioP2;P2;SDS_P1;SDS_P2;PMS_P1;PMS_P2;Temp;Humidity;BMP_temperature;BMP_pressure;BME280_temperature;BME280_humidity;BME280_pressure;Samples;Min_cycle;Max_cycle;Signal;HPM_P1;HPM_P2
2023/03/22 00:02:20;;;;;;;124.00;60.30;;;7.20;99.90;;;;;;5056280;28;20037;-73
2023/03/22 00:04:45;;;;;;;130.60;63.10;;;7.20;99.90;;;;;;5056163;28;20035;-73
2023/03/22 00:07:11;;;;;;;137.00;65.95;;;7.10;99.90;;;;;;5056287;28;20036;-73
2023/03/22 00:09:37;;;;;;;140.38;67.13;;;7.10;99.90;;;;;;5038310;28;20037;-73
2023/03/22 00:12:04;;;;;;;135.23;66.22;;;7.00;99.90;;;;;;5055998;28;20108;-73
2023/03/22 00:14:29;;;;;;;124.15;60.65;;;6.80;99.90;;;;;;5041771;28;20087;-73
2023/03/22 00:16:55;;;;;;;124.00;64.18;;;6.80;99.90;;;;;;5036209;28;20029;-74
2023/03/22 00:19:21;;;;;;;125.13;64.63;;;6.70;99.90;;;;;;5036238;28;20025;-73
2023/03/22 00:21:47;;;;;;;118.38;62.78;;;6.70;99.90;;;;;;5036032;28;20171;-73
2023/03/22 00:24:13;;;;;;;104.93;57.13;;;6.70;99.90;;;;;;5035953;28;20045;-73
2023/03/22 00:26:39;;;;;;;112.07;58.58;;;6.70;99.90;;;;;;5035895;28;20491;-73
2023/03/22 00:29:05;;;;;;;155.95;71.45;;;6.80;99.90;;;;;;5018060;28;20047;-73
2023/03/22 00:31:33;;;;;;;152.30;70.03;;;6.70;99.90;;;;;;5018177;28;20040;-73
2023/03/22 00:33:59;;;;;;;135.50;64.50;;;6.70;99.90;;;;;;5037454;28;20535;-73
2023/03/22 00:36:25;;;;;;;113.05;58.50;;;6.60;99.90;;;;;;5055741;28;20082;-73
2023/03/22 00:38:51;;;;;;;135.68;70.97;;;6.60;99.90;;;;;;5037728;28;20037;-73
2023/03/22 00:41:20;;;;;;;115.70;61.03;;;6.60;99.90;;;;;;5037708;28;20041;-73
2023/03/22 00:43:47;;;;;;;89.28;47.13;;;6.50;99.90;;;;;;5037589;28;20033;-73
2023/03/22 00:46:15;;;;;;;85.57;44.45;;;6.50;99.90;;;;;;5037733;28;20040;-73
2023/03/22 00:48:41;;;;;;;91.25;49.42;;;6.30;99.90;;;;;;5055391;28;20036;-73
2023/03/22 00:51:08;;;;;;;129.05;63.42;;;6.40;99.90;;;;;;5055537;28;20386;-73
2023/03/22 00:53:36;;;;;;;148.68;68.43;;;6.50;99.90;;;;;;5037431;28;20029;-73
2023/03/22 00:56:03;;;;;;;135.77;65.75;;;6.60;99.90;;;;;;5037472;28;20056;-73
2023/03/22 00:58:38;;;;;;;137.20;62.78;;;6.60;99.90;;;;;;5055159;28;20378;-73
2023/03/22 01:01:06;;;;;;;135.07;68.45;;;6.80;99.90;;;;;;5037231;28;20047;-73
2023/03/22 01:03:32;;;;;;;137.95;67.07;;;6.70;99.90;;;;;;5037182;28;20111;-73
2023/03/22 01:05:58;;;;;;;127.70;63.40;;;6.70;99.90;;;;;;5033710;28;20033;-73
2023/03/22 01:08:24;;;;;;;149.10;69.45;;;6.80;99.90;;;;;;5017252;28;20460;-73
2023/03/22 01:10:50;;;;;;;153.77;70.75;;;6.80;99.90;;;;;;5017441;28;20484;-73
2023/03/22 01:13:17;;;;;;;149.15;73.03;;;6.90;99.90;;;;;;5039129;28;20047;-73
2023/03/22 01:15:43;;;;;;;107.70;55.63;;;6.90;99.90;;;;;;5054885;28;20367;-73
2023/03/22 01:18:09;;;;;;;112.85;53.13;;;6.90;99.90;;;;;;5054972;28;20029;-73
2023/03/22 01:20:35;;;;;;;93.65;48.63;;;6.70;99.90;;;;;;5036853;28;20090;-73
2023/03/22 01:23:01;;;;;;;101.13;51.10;;;6.80;99.90;;;;;;5036849;28;20045;-73
2023/03/22 01:25:28;;;;;;;143.23;62.70;;;6.80;99.90;;;;;;5036930;28;20034;-73
2023/03/22 01:27:54;;;;;;;139.73;63.88;;;6.90;99.90;;;;;;5036768;28;20067;-73
2023/03/22 01:30:20;;;;;;;120.82;55.28;;;6.90;99.90;;;;;;5054692;28;20025;-73
2023/03/22 01:32:46;;;;;;;104.47;52.05;;;6.90;99.90;;;;;;5036478;28;20119;-72
2023/03/22 01:35:12;;;;;;;95.60;48.35;;;7.00;99.90;;;;;;5036616;28;20032;-73
2023/03/22 01:37:40;;;;;;;93.80;49.33;;;7.00;99.90;;;;;;5036688;28;20041;-73
2023/03/22 01:40:09;;;;;;;84.50;46.08;;;6.90;99.90;;;;;;5036783;28;20067;-73
2023/03/22 01:42:35;;;;;;;79.75;43.72;;;7.00;99.90;;;;;;5054442;28;20028;-73
2023/03/22 01:45:58;;;;;;;79.07;43.03;;;6.90;99.90;;;;;;5036704;28;20112;-72
2023/03/22 01:48:34;;;;;;;66.53;37.35;;;6.90;99.90;;;;;;5025746;28;20411;-73
2023/03/22 01:51:03;;;;;;;72.75;38.38;;;7.00;99.90;;;;;;5054366;28;20025;-73
2023/03/22 01:53:57;;;;;;;74.70;38.38;;;7.00;99.90;;;;;;5036698;28;20053;-73
2023/03/22 01:56:26;;;;;;;68.82;37.35;;;7.10;99.90;;;;;;5036505;28;20033;-73
2023/03/22 01:58:54;;;;;;;70.35;37.78;;;7.00;99.90;;;;;;5036511;28;20033;-72
2023/03/22 02:01:26;;;;;;;68.80;38.65;;;7.00;99.90;;;;;;5036166;28;20034;-72
2023/03/22 02:04:11;;;;;;;82.93;41.50;;;7.00;99.90;;;;;;5036024;28;20390;-73
2023/03/22 02:06:37;;;;;;;88.93;45.08;;;7.00;99.90;;;;;;5036302;28;20052;-72
2023/03/22 02:09:11;;;;;;;75.78;37.85;;;7.00;99.90;;;;;;5036310;28;20025;-73
2023/03/22 02:11:47;;;;;;;78.20;40.78;;;7.10;99.90;;;;;;5054470;28;20036;-72
2023/03/22 02:14:27;;;;;;;63.10;35.63;;;7.20;99.90;;;;;;5023069;28;20588;-72
2023/03/22 02:17:17;;;;;;;55.65;33.15;;;7.10;99.90;;;;;;5034168;28;20406;-72
2023/03/22 02:20:18;;;;;;;65.03;35.88;;;7.10;99.90;;;;;;5016534;28;20029;-73
2023/03/22 02:22:51;;;;;;;64.68;36.38;;;7.10;99.90;;;;;;5016322;28;20041;-72
2023/03/22 02:25:20;;;;;;;62.42;35.35;;;7.00;99.90;;;;;;5034038;28;20029;-72
2023/03/22 02:28:04;;;;;;;57.58;33.42;;;7.00;99.90;;;;;;5034206;28;20431;-72
2023/03/22 02:31:08;;;;;;;59.00;32.70;;;7.00;99.90;;;;;;5016422;28;20036;-72
2023/03/22 02:34:02;;;;;;;64.13;35.25;;;6.90;99.90;;;;;;4983972;28;20061;-72
2023/03/22 02:36:54;;;;;;;68.10;39.97;;;6.80;99.90;;;;;;5016430;28;20034;-72
2023/03/22 02:39:49;;;;;;;79.60;43.85;;;6.80;99.90;;;;;;5016283;28;20034;-72
2023/03/22 02:42:43;;;;;;;78.05;44.08;;;6.80;99.90;;;;;;5016220;28;20523;-72
2023/03/22 02:45:21;;;;;;;77.20;43.05;;;6.90;99.90;;;;;;5017287;28;20062;-72
2023/03/22 02:48:12;;;;;;;79.93;45.35;;;6.80;99.90;;;;;;5020132;28;20057;-72
2023/03/22 02:50:44;;;;;;;;;;;7.00;99.90;;;;;;5038246;28;20033;-72
2023/03/22 02:53:24;;;;;;;76.13;42.92;;;7.20;99.90;;;;;;5037700;28;20374;-72
2023/03/22 02:55:57;;;;;;;83.35;44.70;;;7.00;99.90;;;;;;5019910;28;20031;-72
2023/03/22 02:58:44;;;;;;;85.68;44.60;;;6.90;99.90;;;;;;5037641;28;20033;-72
2023/03/22 03:01:28;;;;;;;74.90;40.53;;;6.90;99.90;;;;;;5019668;28;20410;-72
2023/03/22 03:04:00;;;;;;;80.70;44.42;;;7.00;99.90;;;;;;5039497;28;20150;-72
2023/03/22 03:06:31;;;;;;;88.05;48.85;;;7.10;99.90;;;;;;5057498;28;20032;-72
2023/03/22 03:09:01;;;;;;;89.65;48.40;;;7.10;99.90;;;;;;5039370;28;20401;-72
2023/03/22 03:11:27;;;;;;;74.20;42.40;;;7.00;99.90;;;;;;5057360;28;20045;-72
2023/03/22 03:13:54;;;;;;;75.25;40.90;;;7.00;99.90;;;;;;5039242;28;20266;-72
2023/03/22 03:16:25;;;;;;;89.70;47.55;;;7.10;99.90;;;;;;5039323;28;20029;-72
2023/03/22 03:19:31;;;;;;;92.88;47.28;;;7.20;99.90;;;;;;5057304;28;20566;-72
2023/03/22 03:22:09;;;;;;;85.00;45.35;;;7.30;99.90;;;;;;5057170;28;20029;-72
2023/03/22 03:24:51;;;;;;;104.03;50.70;;;7.40;99.90;;;;;;5057021;28;20040;-72
2023/03/22 03:27:35;;;;;;;108.45;52.13;;;7.30;99.90;;;;;;5056984;28;20065;-72
2023/03/22 03:30:29;;;;;;;100.65;49.85;;;7.20;99.90;;;;;;5038927;28;20043;-73
2023/03/22 03:33:08;;;;;;;109.13;55.40;;;7.30;99.90;;;;;;5056644;28;20048;-72
2023/03/22 03:35:48;;;;;;;92.25;48.85;;;7.30;99.90;;;;;;5056997;28;20063;-72
2023/03/22 03:38:19;;;;;;;70.43;41.33;;;7.30;99.90;;;;;;5056699;28;20114;-72
2023/03/22 03:41:05;;;;;;;;;;;7.20;99.90;;;;;;5039245;28;20029;-72
2023/03/22 03:43:32;;;;;;;66.40;39.05;;;7.20;99.90;;;;;;5056003;28;20348;-72
2023/03/22 03:45:59;;;;;;;70.07;38.63;;;7.20;99.90;;;;;;5056925;28;20421;-72
2023/03/22 03:48:31;;;;;;;70.20;40.10;;;7.30;99.90;;;;;;5038727;28;20029;-72
2023/03/22 03:51:00;;;;;;;72.63;42.08;;;7.30;99.90;;;;;;5056467;28;20021;-72
2023/03/22 03:53:26;;;;;;;81.45;41.30;;;7.40;99.90;;;;;;5038826;28;20029;-72
2023/03/22 03:55:52;;;;;;;86.25;48.60;;;7.50;99.90;;;;;;5038305;28;20029;-72
2023/03/22 03:58:18;;;;;;;82.70;47.47;;;7.60;99.90;;;;;;5056395;28;20032;-72
2023/03/22 04:00:47;;;;;;;82.60;44.47;;;7.50;99.90;;;;;;5038421;28;20036;-72
2023/03/22 04:03:19;;;;;;;94.93;49.30;;;7.40;99.90;;;;;;5056136;28;20040;-72
2023/03/22 04:06:03;;;;;;;90.93;48.75;;;7.60;99.90;;;;;;5056585;28;20087;-72
2023/03/22 04:08:34;;;;;;;88.57;47.20;;;7.60;99.90;;;;;;5038346;28;20025;-72
2023/03/22 04:11:01;;;;;;;81.22;45.10;;;7.60;99.90;;;;;;5038272;28;20061;-72
2023/03/22 04:13:28;;;;;;;85.47;46.28;;;7.60;99.90;;;;;;5032355;28;20029;-72
2023/03/22 04:16:00;;;;;;;91.95;47.75;;;7.60;99.90;;;;;;5018401;28;20037;-72
2023/03/22 04:18:28;;;;;;;85.88;45.47;;;7.60;99.90;;;;;;5018382;28;20036;-72
2023/03/22 04:20:56;;;;;;;76.68;41.67;;;7.60;99.90;;;;;;5018219;28;20375;-72
2023/03/22 04:23:24;;;;;;;61.38;35.60;;;7.50;99.90;;;;;;5018136;28;20037;-72
2023/03/22 04:25:51;;;;;;;75.53;41.00;;;7.40;99.90;;;;;;5018237;28;20029;-72
2023/03/22 04:28:28;;;;;;;80.10;42.03;;;7.40;99.90;;;;;;5018051;28;20052;-72
2023/03/22 04:30:56;;;;;;;78.57;42.92;;;7.40;99.90;;;;;;5035950;28;20022;-72
2023/03/22 04:33:45;;;;;;;101.90;50.20;;;7.40;99.90;;;;;;5035839;28;20040;-72
2023/03/22 04:36:29;;;;;;;155.15;70.28;;;7.50;99.90;;;;;;5017969;28;20426;-72
2023/03/22 04:39:34;;;;;;;158.63;71.13;;;7.60;99.90;;;;;;5029924;28;20042;-72
2023/03/22 04:42:19;;;;;;;149.65;66.15;;;7.70;99.90;;;;;;5035316;28;20045;-72
2023/03/22 04:44:48;;;;;;;128.00;59.78;;;7.70;99.90;;;;;;5017738;28;20033;-72
2023/03/22 04:47:14;;;;;;;122.20;56.67;;;7.80;99.90;;;;;;5034272;28;20076;-72
2023/03/22 04:49:41;;;;;;;115.35;54.47;;;7.80;99.90;;;;;;5018032;28;20036;-72
2023/03/22 04:52:07;;;;;;;95.15;46.97;;;7.80;99.90;;;;;;5017957;28;20079;-72
2023/03/22 04:54:37;;;;;;;79.65;43.28;;;7.80;99.90;;;;;;5035685;28;20117;-72
2023/03/22 04:57:03;;;;;;;82.68;44.67;;;7.60;99.90;;;;;;5017854;28;20033;-72
2023/03/22 04:59:35;;;;;;;78.32;42.53;;;7.60;99.90;;;;;;5017741;28;20056;-72
2023/03/22 05:02:01;;;;;;;84.95;47.05;;;7.50;99.90;;;;;;5017499;28;20387;-72
2023/03/22 05:04:34;;;;;;;75.75;43.85;;;7.50;99.90;;;;;;5025057;28;20074;-72
2023/03/22 05:07:09;;;;;;;71.13;38.25;;;7.60;99.90;;;;;;5036895;28;20029;-72
2023/03/22 05:09:43;;;;;;;79.60;42.55;;;7.60;99.90;;;;;;5036759;28;20086;-72
2023/03/22 05:12:09;;;;;;;75.10;39.97;;;7.60;99.90;;;;;;5037047;28;20029;-72
2023/03/22 05:14:46;;;;;;;109.88;53.85;;;7.80;99.90;;;;;;5037018;28;20036;-72
2023/03/22 05:17:15;;;;;;;167.95;77.15;;;7.90;99.90;;;;;;5036952;28;20029;-72
2023/03/22 05:19:42;;;;;;;182.70;84.90;;;7.90;99.90;;;;;;5037148;28;20063;-72
2023/03/22 05:22:10;;;;;;;122.32;61.03;;;8.00;99.90;;;;;;5036930;28;20028;-72
2023/03/22 05:24:42;;;;;;;118.30;63.03;;;8.00;99.90;;;;;;5036634;28;20040;-72
2023/03/22 05:27:13;;;;;;;96.18;59.13;;;8.10;99.90;;;;;;5037022;28;20021;-72
2023/03/22 05:29:43;;;;;;;91.65;50.88;;;8.20;99.90;;;;;;5036896;28;20031;-72
2023/03/22 05:32:17;;;;;;;75.07;41.45;;;8.30;99.90;;;;;;5036859;28;20395;-72
2023/03/22 05:34:47;;;;;;;67.15;38.03;;;8.40;99.90;;;;;;5036549;28;20029;-72
2023/03/22 05:37:35;;;;;;;63.78;34.72;;;8.40;99.90;;;;;;5054371;28;20486;-72
2023/03/22 05:40:08;;;;;;;65.95;36.08;;;8.30;99.90;;;;;;5036545;28;20025;-72
2023/03/22 05:42:37;;;;;;;73.72;40.90;;;8.30;99.90;;;;;;5036555;28;20029;-72
2023/03/22 05:45:12;;;;;;;85.00;45.47;;;8.20;99.90;;;;;;5036520;28;20067;-72
2023/03/22 05:47:40;;;;;;;95.00;46.95;;;8.30;99.90;;;;;;5036626;28;20075;-72
2023/03/22 05:50:15;;;;;;;119.50;54.15;;;8.50;99.90;;;;;;5036393;28;20119;-72
2023/03/22 05:52:43;;;;;;;109.63;52.67;;;8.60;99.90;;;;;;5036238;28;20033;-72
2023/03/22 05:55:32;;;;;;;103.22;49.97;;;8.60;99.90;;;;;;5040748;28;20041;-72
2023/03/22 05:58:04;;;;;;;100.13;45.55;;;8.70;99.90;;;;;;5036314;28;20033;-72
2023/03/22 06:00:32;;;;;;;95.25;43.75;;;8.70;99.90;;;;;;5036291;28;20040;-72
2023/03/22 06:03:17;;;;;;;113.93;49.75;;;8.70;99.90;;;;;;5054192;28;20099;-72
2023/03/22 06:05:53;;;;;;;106.68;46.53;;;8.90;99.90;;;;;;5032803;28;20033;-72
2023/03/22 06:08:22;;;;;;;96.70;45.53;;;8.90;99.90;;;;;;5016408;28;20150;-72
2023/03/22 06:10:50;;;;;;;79.88;40.63;;;9.00;99.90;;;;;;5016681;28;20557;-72
2023/03/22 06:13:17;;;;;;;85.97;45.72;;;9.00;99.90;;;;;;5037977;28;20091;-72
2023/03/22 06:15:43;;;;;;;91.20;44.58;;;9.10;99.90;;;;;;5054073;28;20096;-71
2023/03/22 06:18:16;;;;;;;92.82;44.30;;;9.20;99.90;;;;;;5036139;28;20028;-72
2023/03/22 06:20:46;;;;;;;85.32;44.17;;;9.20;99.90;;;;;;5037369;28;20478;-72
2023/03/22 06:23:17;;;;;;;79.88;43.60;;;9.30;99.90;;;;;;5040569;28;20220;-72
2023/03/22 06:25:45;;;;;;;79.03;43.50;;;9.50;99.90;;;;;;5024801;28;20030;-72
2023/03/22 06:28:11;;;;;;;81.35;44.13;;;9.50;99.90;;;;;;5018776;28;20045;-72
2023/03/22 06:30:41;;;;;;;84.05;44.53;;;9.50;99.90;;;;;;5033496;28;20026;-71
2023/03/22 06:33:27;;;;;;;86.60;44.47;;;9.60;99.90;;;;;;5023620;28;20483;-72
2023/03/22 06:36:02;;;;;;;93.30;42.60;;;9.70;99.90;;;;;;5027434;28;20505;-71
2023/03/22 06:38:37;;;;;;;80.25;41.75;;;9.90;99.90;;;;;;5036867;28;20172;-71
2023/03/22 06:41:03;;;;;;;80.75;41.83;;;10.00;99.90;;;;;;5028875;28;20056;-71
2023/03/22 06:43:29;;;;;;;86.63;43.03;;;10.10;99.90;;;;;;5052745;28;20082;-71
2023/03/22 06:46:06;;;;;;;88.65;41.60;;;10.20;99.90;;;;;;5035890;28;20156;-71
2023/03/22 06:48:41;;;;;;;83.45;42.42;;;10.30;99.90;;;;;;5035910;28;20021;-71
2023/03/22 06:51:11;;;;;;;97.97;41.80;;;10.50;99.90;;;;;;5036166;28;20052;-71
2023/03/22 06:53:38;;;;;;;84.95;40.88;;;10.70;99.90;;;;;;5036192;28;20041;-71
2023/03/22 06:56:04;;;;;;;81.68;42.50;;;10.90;99.90;;;;;;5036340;28;20047;-71
2023/03/22 06:58:38;;;;;;;76.30;41.63;;;11.10;99.90;;;;;;5053402;28;20038;-72
2023/03/22 07:01:04;;;;;;;89.85;44.35;;;11.30;99.90;;;;;;5036138;28;20438;-72
2023/03/22 07:03:31;;;;;;;80.07;42.45;;;11.50;99.90;;;;;;5036511;28;20091;-71
2023/03/22 07:06:06;;;;;;;98.38;44.05;;;11.60;99.90;;;;;;5034450;28;20026;-72
2023/03/22 07:08:36;;;;;;;90.75;46.33;;;11.80;99.90;;;;;;5051854;28;20026;-71
2023/03/22 07:11:03;;;;;;;87.45;43.17;;;11.90;99.90;;;;;;5037423;28;20053;-71
2023/03/22 07:13:29;;;;;;;83.93;44.92;;;12.20;99.90;;;;;;5052232;28;20029;-71
2023/03/22 07:16:01;;;;;;;;;;;12.20;99.90;;;;;;5030838;28;20033;-71
2023/03/22 07:18:53;;;;;;;87.15;42.00;;;12.60;99.90;;;;;;5022530;28;19909;-71
2023/03/22 07:21:19;;;;;;;85.90;43.10;;;13.00;99.90;;;;;;5051937;28;20041;-71
2023/03/22 07:23:50;;;;;;;81.30;42.05;;;13.60;99.90;;;;;;5052002;28;20049;-70
2023/03/22 07:26:25;;;;;;;72.13;40.25;;;14.20;99.90;;;;;;5033206;28;20026;-71
2023/03/22 07:28:53;;;;;;;75.55;42.67;;;14.10;99.90;;;;;;5010696;28;20414;-72
2023/03/22 07:31:41;;;;;;;79.25;43.28;;;14.20;99.90;;;;;;5027670;28;20017;-71
2023/03/22 07:34:20;;;;;;;78.60;43.47;;;14.50;99.90;;;;;;5033376;28;20033;-71
2023/03/22 07:37:10;;;;;;;72.63;40.03;;;14.60;99.90;;;;;;5024200;28;20033;-71
2023/03/22 07:39:39;;;;;;;82.88;42.40;;;14.60;99.90;;;;;;5025288;28;20039;-71
2023/03/22 07:42:06;;;;;;;65.72;36.47;;;14.80;99.90;;;;;;5031369;28;20029;-71
2023/03/22 07:44:31;;;;;;;72.28;36.85;;;15.10;99.90;;;;;;5028422;28;20471;-71
2023/03/22 07:47:10;;;;;;;85.32;39.28;;;15.40;99.90;;;;;;5022324;28;20099;-71
2023/03/22 07:49:46;;;;;;;71.00;39.03;;;15.40;99.90;;;;;;5025451;28;20057;-71
2023/03/22 07:52:16;;;;;;;77.90;43.47;;;15.60;99.90;;;;;;5023952;28;20028;-71
2023/03/22 07:55:12;;;;;;;76.35;42.85;;;15.70;99.90;;;;;;5024469;28;20979;-71
2023/03/22 07:58:06;;;;;;;76.72;43.67;;;15.90;99.90;;;;;;5021338;28;20103;-71
2023/03/22 08:00:35;;;;;;;68.53;38.47;;;16.20;99.90;;;;;;5027676;28;20048;-71
2023/03/22 08:03:22;;;;;;;79.20;37.30;;;16.30;99.90;;;;;;5024731;28;20033;-70
2023/03/22 08:06:11;;;;;;;62.33;33.28;;;16.30;99.90;;;;;;5021851;28;20041;-71
2023/03/22 08:08:37;;;;;;;52.72;32.65;;;17.00;99.90;;;;;;5032630;28;20568;-70
2023/03/22 08:11:07;;;;;;;63.65;34.38;;;17.60;99.90;;;;;;5030703;28;20056;-70
2023/03/22 08:13:34;;;;;;;68.90;35.63;;;18.00;99.90;;;;;;5032255;28;20107;-70
2023/03/22 08:16:00;;;;;;;55.38;31.23;;;18.40;99.90;;;;;;5032158;28;20052;-71
2023/03/22 08:18:26;;;;;;;63.70;32.05;;;18.80;99.90;;;;;;5026489;28;20026;-71
2023/03/22 08:20:57;;;;;;;52.67;30.65;;;18.60;99.90;;;;;;5021387;28;20030;-71
2023/03/22 08:23:27;;;;;;;52.45;29.33;;;18.90;99.90;;;;;;5024978;28;20049;-71
2023/03/22 08:26:13;;;;;;;53.35;27.95;;;18.80;99.90;;;;;;5021168;28;20029;-71
2023/03/22 08:28:39;;;;;;;51.92;29.75;;;19.50;99.90;;;;;;5022760;28;20022;-71
2023/03/22 08:31:16;;;;;;;43.65;27.85;;;20.00;99.90;;;;;;5020286;28;20032;-71
2023/03/22 08:33:43;;;;;;;50.88;28.25;;;20.30;99.90;;;;;;5019389;28;20030;-71
2023/03/22 08:36:13;;;;;;;41.22;25.80;;;19.90;99.90;;;;;;5033797;28;20030;-71
2023/03/22 08:38:46;;;;;;;43.70;26.23;;;19.90;99.90;;;;;;5033321;28;20389;-71
2023/03/22 08:41:14;;;;;;;44.80;26.60;;;20.50;99.90;;;;;;5023688;28;20045;-71
2023/03/22 08:43:41;;;;;;;58.65;29.90;;;20.70;99.90;;;;;;5015818;28;20034;-71
2023/03/22 08:46:08;;;;;;;48.92;27.90;;;21.10;99.90;;;;;;5022228;28;20053;-71
2023/03/22 08:48:36;;;;;;;47.78;27.45;;;21.40;99.90;;;;;;5033835;28;20029;-71
2023/03/22 08:51:14;;;;;;;49.55;26.83;;;21.80;99.90;;;;;;5034161;28;20029;-71
2023/03/22 08:53:52;;;;;;;43.67;25.67;;;21.80;99.90;;;;;;5033830;28;20131;-72
2023/03/22 08:56:37;;;;;;;44.83;24.55;;;21.80;99.90;;;;;;5035572;28;20152;-72
2023/03/22 08:59:20;;;;;;;50.53;25.00;;;21.30;99.90;;;;;;5033925;28;20026;-73
2023/03/22 09:02:02;;;;;;;43.22;24.73;;;21.20;99.90;;;;;;5033457;28;20037;-73
2023/03/22 09:04:28;;;;;;;41.45;23.73;;;21.40;99.90;;;;;;5023302;28;20033;-72
2023/03/22 09:06:54;;;;;;;41.53;24.33;;;21.00;99.90;;;;;;5033502;28;20167;-73
2023/03/22 09:09:28;;;;;;;41.40;22.02;;;20.60;99.90;;;;;;5034271;28;20104;-73
2023/03/22 09:11:58;;;;;;;45.67;23.05;;;20.60;99.90;;;;;;5033655;28;20360;-73
2023/03/22 09:14:24;;;;;;;38.65;23.75;;;20.70;99.90;;;;;;5022902;28;20061;-73
2023/03/22 09:16:50;;;;;;;42.80;22.08;;;20.30;99.90;;;;;;5018796;28;20030;-73
2023/03/22 09:19:17;;;;;;;38.15;19.52;;;20.20;99.90;;;;;;5024604;28;20144;-73
2023/03/22 09:21:44;;;;;;;34.50;20.00;;;20.40;99.90;;;;;;5020276;28;20104;-73
2023/03/22 09:24:17;;;;;;;34.63;18.17;;;20.80;99.90;;;;;;5014674;28;20041;-73
2023/03/22 09:26:48;;;;;;;;;;;20.70;99.90;;;;;;5031862;28;20037;-73
2023/03/22 09:29:18;;;;;;;31.90;17.48;;;20.30;99.90;;;;;;5032774;28;20338;-74
2023/03/22 09:31:47;;;;;;;43.75;17.58;;;20.00;99.90;;;;;;5030030;28;20053;-74
2023/03/22 09:34:20;;;;;;;31.30;17.42;;;19.80;99.90;;;;;;5017531;28;20084;-74
2023/03/22 09:36:47;;;;;;;37.65;17.75;;;19.50;99.90;;;;;;5024886;28;20438;-74
2023/03/22 09:39:15;;;;;;;39.58;19.05;;;19.50;99.90;;;;;;5033150;28;20021;-74
2023/03/22 09:41:53;;;;;;;32.55;19.80;;;19.30;99.90;;;;;;5049641;28;20025;-74
2023/03/22 09:44:41;;;;;;;31.42;18.00;;;19.20;99.90;;;;;;5032037;28;20091;-74
2023/03/22 09:47:20;;;;;;;40.33;19.02;;;19.00;99.90;;;;;;5031923;28;20056;-74
2023/03/22 09:49:55;;;;;;;39.50;18.38;;;18.30;99.90;;;;;;5015088;28;20026;-74
2023/03/22 09:52:21;;;;;;;36.13;19.17;;;18.50;99.90;;;;;;5028158;28;20025;-74
2023/03/22 09:54:47;;;;;;;38.05;19.52;;;18.60;99.90;;;;;;5034878;28;20032;-75
2023/03/22 09:57:31;;;;;;;33.60;17.70;;;18.60;99.90;;;;;;5034670;28;20041;-75
2023/03/22 10:00:32;;;;;;;39.80;21.73;;;18.50;99.90;;;;;;5034086;28;20391;-75
2023/03/22 10:03:37;;;;;;;45.92;25.25;;;18.50;99.90;;;;;;5034170;28;20036;-74
2023/03/22 10:06:17;;;;;;;45.30;25.17;;;18.60;99.90;;;;;;5019535;28;20484;-74
2023/03/22 10:08:56;;;;;;;46.95;19.98;;;19.10;99.90;;;;;;5014659;28;20078;-74
2023/03/22 10:11:30;;;;;;;38.13;19.95;;;19.20;99.90;;;;;;5031039;28;20052;-75
2023/03/22 10:14:34;;;;;;;33.22;20.42;;;19.10;99.90;;;;;;5027000;28;20100;-74
2023/03/22 10:17:07;;;;;;;36.00;19.67;;;19.30;99.90;;;;;;5033134;28;20033;-75
2023/03/22 10:19:42;;;;;;;27.63;14.98;;;19.20;99.90;;;;;;5033533;28;20090;-75
2023/03/22 10:22:11;;;;;;;29.67;14.50;;;18.60;99.90;;;;;;5033351;28;20532;-75
2023/03/22 10:24:40;;;;;;;32.55;15.98;;;19.10;99.90;;;;;;5051659;28;20052;-75
2023/03/22 10:27:17;;;;;;;24.55;11.73;;;19.40;99.90;;;;;;5053768;28;20033;-75
2023/03/22 10:30:00;;;;;;;20.80;11.65;;;19.50;99.90;;;;;;5053535;28;20463;-74
2023/03/22 10:32:47;;;;;;;23.40;10.88;;;19.90;99.90;;;;;;5054091;28;20035;-74
2023/03/22 10:35:15;;;;;;;23.10;9.75;;;20.00;99.90;;;;;;5053430;28;20064;-74
2023/03/22 10:37:44;;;;;;;34.75;11.02;;;20.40;99.90;;;;;;5053780;28;20033;-74
2023/03/22 10:40:20;;;;;;;25.92;11.60;;;20.70;99.90;;;;;;5052608;28;20029;-73
2023/03/22 10:42:53;;;;;;;9.90;4.28;;;21.10;99.90;;;;;;5033335;28;20490;-74
2023/03/22 10:45:20;;;;;;;14.45;5.60;;;20.60;99.90;;;;;;5033459;28;20117;-74
2023/03/22 10:47:51;;;;;;;9.18;4.03;;;20.50;99.90;;;;;;5038466;28;20474;-74
2023/03/22 10:50:35;;;;;;;8.70;3.97;;;20.60;99.90;;;;;;5050596;28;20036;-74
2023/03/22 10:53:10;;;;;;;7.65;4.15;;;20.50;99.90;;;;;;5053906;28;20067;-74
2023/03/22 10:55:41;;;;;;;5.97;2.97;;;20.50;99.90;;;;;;5054381;28;20467;-74
2023/03/22 10:58:15;;;;;;;10.45;2.85;;;20.60;99.90;;;;;;5054329;28;20037;-74
2023/03/22 11:00:48;;;;;;;8.27;1.80;;;20.50;99.90;;;;;;5054026;28;20028;-74
2023/03/22 11:03:28;;;;;;;5.15;2.00;;;20.50;99.90;;;;;;5053955;28;20099;-74
2023/03/22 11:06:14;;;;;;;16.00;3.27;;;21.10;99.90;;;;;;5054644;28;20025;-73
2023/03/22 11:08:51;;;;;;;5.95;3.15;;;21.70;99.90;;;;;;5057730;28;20246;-73
2023/03/22 11:11:22;;;;;;;4.10;1.70;;;21.90;99.90;;;;;;5058022;28;20032;-73
2023/03/22 11:14:26;;;;;;;4.80;2.13;;;21.90;99.90;;;;;;5048998;28;20459;-73
2023/03/22 11:16:59;;;;;;;6.63;2.15;;;22.40;99.90;;;;;;5016971;28;20037;-72
2023/03/22 11:19:30;;;;;;;6.60;1.98;;;22.90;99.90;;;;;;5051180;28;20025;-72
2023/03/22 11:21:58;;;;;;;17.63;2.90;;;23.50;99.90;;;;;;5050152;28;20040;-73
2023/03/22 11:24:26;;;;;;;5.53;1.45;;;24.00;99.90;;;;;;5057589;28;20523;-72
2023/03/22 11:27:03;;;;;;;12.90;3.03;;;24.60;99.90;;;;;;5057598;28;20029;-72
2023/03/22 11:29:41;;;;;;;3.53;1.63;;;24.90;99.90;;;;;;5057585;28;20100;-73
2023/03/22 11:32:20;;;;;;;8.63;1.70;;;24.40;99.90;;;;;;5055108;28;20032;-72
2023/03/22 11:34:46;;;;;;;5.45;1.92;;;24.70;99.90;;;;;;5053065;28;20017;-72
2023/03/22 11:37:16;;;;;;;6.10;1.25;;;25.00;99.90;;;;;;5056207;28;20073;-72
2023/03/22 11:39:49;;;;;;;3.67;1.10;;;24.40;99.90;;;;;;5056401;28;20040;-72
2023/03/22 11:42:19;;;;;;;3.30;1.33;;;25.20;99.90;;;;;;5057386;28;20029;-73
2023/03/22 11:44:46;;;;;;;6.32;1.98;;;25.40;99.90;;;;;;5057167;28;20032;-73
2023/03/22 11:47:12;;;;;;;6.65;1.40;;;24.90;99.90;;;;;;5057021;28;20025;-74
2023/03/22 11:49:46;;;;;;;7.70;1.60;;;24.40;99.90;;;;;;5057325;28;20151;-74
2023/03/22 11:52:18;;;;;;;1.63;1.02;;;23.90;99.90;;;;;;5056876;28;20037;-75
2023/03/22 11:54:45;;;;;;;5.47;1.48;;;23.80;99.90;;;;;;5053248;28;20060;-74
2023/03/22 11:57:16;;;;;;;26.30;3.35;;;23.40;99.90;;;;;;5044979;28;20035;-74
2023/03/22 12:00:09;;;;;;;3.00;1.20;;;23.60;99.90;;;;;;5051628;28;20036;-74
2023/03/22 12:02:40;;;;;;;3.10;1.08;;;24.40;99.90;;;;;;5056257;28;20463;-74
2023/03/22 12:05:30;;;;;;;5.55;1.10;;;24.30;99.90;;;;;;5056012;28;20033;-74
2023/03/22 12:08:08;;;;;;;7.03;2.28;;;24.00;99.90;;;;;;5055799;28;20029;-75
2023/03/22 12:10:47;;;;;;;13.27;2.90;;;23.60;99.90;;;;;;5055805;28;20025;-75
2023/03/22 12:13:22;;;;;;;9.67;1.93;;;22.90;99.90;;;;;;5055837;28;20059;-75
2023/03/22 12:15:54;;;;;;;3.75;1.90;;;22.80;99.90;;;;;;5055967;28;20056;-75
2023/03/22 12:18:32;;;;;;;13.45;4.07;;;23.30;99.90;;;;;;5055693;28;20053;-74
2023/03/22 12:21:00;;;;;;;8.73;2.58;;;23.70;99.90;;;;;;5054743;28;20087;-74
2023/03/22 12:23:35;;;;;;;13.63;3.90;;;24.20;99.90;;;;;;5055963;28;20088;-74
2023/03/22 12:26:25;;;;;;;5.38;1.33;;;24.70;99.90;;;;;;5056648;28;20100;-75
2023/03/22 12:28:54;;;;;;;8.45;2.30;;;24.50;99.90;;;;;;5055625;28;20228;-75
2023/03/22 12:31:32;;;;;;;3.30;1.45;;;24.00;99.90;;;;;;5052780;28;20064;-75
2023/03/22 12:34:24;;;;;;;18.25;3.00;;;23.90;99.90;;;;;;5050915;28;20387;-76
2023/03/22 12:36:54;;;;;;;12.25;2.83;;;23.40;99.90;;;;;;5042368;28;20025;-75
2023/03/22 12:39:41;;;;;;;6.07;1.42;;;23.00;99.90;;;;;;5055541;28;20025;-76
2023/03/22 12:42:43;;;;;;;10.25;2.30;;;22.90;99.90;;;;;;5052420;28;20450;-76
2023/03/22 12:45:22;;;;;;;2.10;1.13;;;22.40;99.90;;;;;;5009893;28;20052;-76
2023/03/22 12:47:54;;;;;;;11.65;3.38;;;22.10;99.90;;;;;;5013235;28;20049;-76
2023/03/22 12:50:24;;;;;;;7.30;1.75;;;22.10;99.90;;;;;;5007131;28;20041;-76
2023/03/22 12:52:55;;;;;;;13.15;2.92;;;22.30;99.90;;;;;;5004799;28;20042;-76
2023/03/22 12:55:31;;;;;;;10.50;2.33;;;22.70;99.90;;;;;;5001599;28;20030;-75
2023/03/22 12:57:57;;;;;;;2.63;1.58;;;23.40;99.90;;;;;;5000225;28;20535;-75
2023/03/22 13:00:36;;;;;;;3.85;1.40;;;23.10;99.90;;;;;;5007176;28;20041;-75
2023/03/22 13:03:28;;;;;;;10.73;3.33;;;22.80;99.90;;;;;;5003635;28;20651;-76
2023/03/22 13:06:31;;;;;;;10.55;2.90;;;22.50;99.90;;;;;;5001864;28;20054;-76
2023/03/22 13:09:15;;;;;;;10.38;2.22;;;22.30;99.90;;;;;;5010423;28;20038;-77
2023/03/22 13:11:46;;;;;;;13.18;2.42;;;22.10;99.90;;;;;;5004478;28;20034;-76